VCP44Y EGPF-EGLL
Flight info
| Callsign | VCP44Y |
|---|---|
| Flight time | N/A |
| Altitude | 25000 |
| Route | NORBO T256 RIPNO/N0491F330 DCT AKOMU DCT VAMEB DCT NUGRA |
| Aircraft | B77W/H-SDE1E2E3FGHIJ2J3J4J5M1RWXY/LB1D1 |
Departure
| Time | N/A |
|---|---|
| Airport | Glasgow Airport (EGPF) |
Arrival
| Time | 2026-04-30 18:19 |
|---|---|
| Airport | London Heathrow Airport (EGLL) |
| Time | Latitude | Longitude | Altitude | Speed | Heading |
|---|---|---|---|---|---|
| 2026-04-30 17:39 | 54.65870 | -3.43747 | 34676 ft | 452 kts | 150° |
| 2026-04-30 17:41 | 54.44365 | -3.21239 | 35164 ft | 449 kts | 150° |
| 2026-04-30 17:42 | 54.39030 | -3.15701 | 35170 ft | 449 kts | 150° |
| 2026-04-30 17:43 | 54.25615 | -3.01844 | 35174 ft | 452 kts | 151° |
| 2026-04-30 17:44 | 54.08868 | -2.87101 | 35171 ft | 451 kts | 158° |
| 2026-04-30 17:47 | 53.82250 | -2.71355 | 35169 ft | 451 kts | 163° |
| 2026-04-30 17:48 | 53.61289 | -2.60368 | 35160 ft | 451 kts | 163° |
| 2026-04-30 17:50 | 53.37386 | -2.47976 | 35180 ft | 448 kts | 163° |
| 2026-04-30 17:52 | 53.19520 | -2.38809 | 35187 ft | 448 kts | 163° |
| 2026-04-30 17:54 | 52.93833 | -2.21009 | 35177 ft | 450 kts | 148° |
| 2026-04-30 17:56 | 52.72747 | -1.98814 | 33988 ft | 446 kts | 149° |
| 2026-04-30 17:57 | 52.64897 | -1.90707 | 31443 ft | 444 kts | 149° |
| 2026-04-30 17:58 | 52.57088 | -1.82671 | 29110 ft | 436 kts | 149° |
| 2026-04-30 17:59 | 52.47047 | -1.72388 | 26584 ft | 415 kts | 149° |
| 2026-04-30 18:00 | 52.37413 | -1.62575 | 24194 ft | 401 kts | 149° |
| 2026-04-30 18:00 | 52.30385 | -1.55446 | 22352 ft | 392 kts | 149° |
| 2026-04-30 18:01 | 52.25782 | -1.50791 | 21218 ft | 384 kts | 149° |
| 2026-04-30 18:02 | 52.19238 | -1.43627 | 19761 ft | 375 kts | 141° |
| 2026-04-30 18:02 | 52.13243 | -1.34987 | 18631 ft | 387 kts | 139° |
| 2026-04-30 18:03 | 52.07204 | -1.26478 | 17378 ft | 379 kts | 140° |
| 2026-04-30 18:04 | 52.01261 | -1.18238 | 16176 ft | 370 kts | 140° |
| 2026-04-30 18:05 | 51.93708 | -1.07811 | 14632 ft | 347 kts | 140° |
| 2026-04-30 18:06 | 51.86863 | -0.98397 | 12860 ft | 282 kts | 141° |
| 2026-04-30 18:07 | 51.81996 | -0.90816 | 10837 ft | 236 kts | 168° |
| 2026-04-30 18:08 | 51.77113 | -0.89838 | 8997 ft | 234 kts | 172° |
| 2026-04-30 18:09 | 51.70668 | -0.88775 | 7466 ft | 229 kts | 172° |
| 2026-04-30 18:10 | 51.64438 | -0.87815 | 6014 ft | 223 kts | 173° |
| 2026-04-30 18:11 | 51.58546 | -0.86862 | 5217 ft | 198 kts | 173° |
| 2026-04-30 18:11 | 51.54683 | -0.86212 | 4647 ft | 175 kts | 172° |
| 2026-04-30 18:12 | 51.51142 | -0.85761 | 3862 ft | 165 kts | 172° |
| 2026-04-30 18:13 | 51.49394 | -0.83680 | 3606 ft | 169 kts | 120° |
| 2026-04-30 18:13 | 51.47955 | -0.79242 | 3290 ft | 168 kts | 113° |
| 2026-04-30 18:14 | 51.47686 | -0.74886 | 3080 ft | 168 kts | 95° |
| 2026-04-30 18:15 | 51.47675 | -0.69437 | 2636 ft | 153 kts | 94° |
| 2026-04-30 18:15 | 51.47690 | -0.64490 | 2058 ft | 147 kts | 93° |
| 2026-04-30 18:16 | 51.47703 | -0.61232 | 1690 ft | 144 kts | 92° |
| 2026-04-30 18:16 | 51.47716 | -0.58123 | 1237 ft | 132 kts | 92° |
| 2026-04-30 18:17 | 51.47718 | -0.56649 | 1095 ft | 133 kts | 91° |
| 2026-04-30 18:17 | 51.47724 | -0.55192 | 947 ft | 132 kts | 89° |
| 2026-04-30 18:17 | 51.47737 | -0.52180 | 627 ft | 139 kts | 89° |
| 2026-04-30 18:18 | 51.47743 | -0.50619 | 387 ft | 137 kts | 92° |
| 2026-04-30 18:18 | 51.47748 | -0.49128 | 210 ft | 132 kts | 90° |
| 2026-04-30 18:18 | 51.47752 | -0.47699 | 95 ft | 125 kts | 88° |
| 2026-04-30 18:18 | 51.47758 | -0.46484 | 97 ft | 88 kts | 89° |
| 2026-04-30 18:19 | 51.47760 | -0.45748 | 92 ft | 44 kts | 90° |
| 2026-04-30 18:19 | 51.47743 | -0.45500 | 92 ft | 16 kts | 133° |
| 2026-04-30 18:19 | 51.47637 | -0.45467 | 91 ft | 11 kts | 178° |
| 2026-04-30 18:19 | 51.47623 | -0.45466 | 91 ft | 0 kts | 178° |
| 2026-04-30 18:20 | 51.47614 | -0.45466 | 91 ft | 3 kts | 178° |
| 2026-04-30 18:20 | 51.47589 | -0.45465 | 91 ft | 4 kts | 178° |
| 2026-04-30 18:21 | 51.47554 | -0.45463 | 91 ft | 6 kts | 178° |
| 2026-04-30 18:21 | 51.47516 | -0.45490 | 96 ft | 6 kts | 236° |
| 2026-04-30 18:21 | 51.47509 | -0.45560 | 94 ft | 7 kts | 268° |
| 2026-04-30 18:21 | 51.47508 | -0.45658 | 94 ft | 10 kts | 274° |
| 2026-04-30 18:22 | 51.47515 | -0.45777 | 93 ft | 11 kts | 275° |
| 2026-04-30 18:22 | 51.47522 | -0.46028 | 94 ft | 11 kts | 268° |
| 2026-04-30 18:22 | 51.47518 | -0.46155 | 92 ft | 12 kts | 267° |
| 2026-04-30 18:23 | 51.47515 | -0.46289 | 91 ft | 12 kts | 269° |
| 2026-04-30 18:23 | 51.47513 | -0.46424 | 94 ft | 12 kts | 269° |
| 2026-04-30 18:23 | 51.47513 | -0.46514 | 94 ft | 12 kts | 270° |
| 2026-04-30 18:23 | 51.47514 | -0.46651 | 94 ft | 12 kts | 269° |
| 2026-04-30 18:24 | 51.47477 | -0.46889 | 95 ft | 9 kts | 213° |
| 2026-04-30 18:24 | 51.47416 | -0.46881 | 93 ft | 9 kts | 167° |
| 2026-04-30 18:24 | 51.47330 | -0.46867 | 91 ft | 9 kts | 178° |
| 2026-04-30 18:25 | 51.47286 | -0.46865 | 91 ft | 9 kts | 179° |
| 2026-04-30 18:25 | 51.47177 | -0.46866 | 91 ft | 4 kts | 180° |
| 2026-04-30 18:25 | 51.47139 | -0.46866 | 91 ft | 5 kts | 179° |
| 2026-04-30 18:26 | 51.47080 | -0.46864 | 92 ft | 6 kts | 179° |
| 2026-04-30 18:26 | 51.47038 | -0.46862 | 91 ft | 6 kts | 179° |
| 2026-04-30 18:26 | 51.46997 | -0.46879 | 95 ft | 6 kts | 227° |
| 2026-04-30 18:27 | 51.46987 | -0.46986 | 93 ft | 2 kts | 268° |
| 2026-04-30 18:27 | 51.46986 | -0.46994 | 93 ft | 0 kts | 268° |